Terminal Aerodrome Forecast
Issued by NWS

Home | Current Version | Previous Version | Text Only | Print | Product List | Glossary On
Versions: 1 2 3 4 5 6 7 8 9 10 11 12 13 14 15 16 17 18 19 20 21 22
672
FTUS46 KPDT 222359 AAA
TAFRDM
TAF AMD
KRDM 222359Z 2300/2324 32012KT P6SM BKN090
     FM230500 32005KT P6SM SCT050
     FM231200 15004KT 5SM BR FEW002
     FM231800 17010KT P6SM FEW150 SCT200=

USA.gov is the U.S. government's official web portal to all federal, state and local government web resources and services.